createdAt,value
2018-09-03T05:12:38.700Z,19.40
2018-09-03T05:15:07.603Z,20.00
2018-09-03T05:17:36.499Z,20.00
2018-09-03T05:20:05.612Z,20.00
2018-09-03T05:22:34.693Z,20.10
2018-09-03T05:25:03.607Z,20.10
2018-09-03T05:27:32.439Z,20.10
2018-09-03T05:30:01.308Z,20.20
2018-09-03T05:32:30.148Z,20.20
2018-09-03T05:34:59.065Z,20.20
2018-09-03T05:37:28.083Z,20.20
2018-09-03T05:39:57.088Z,20.20
2018-09-03T05:42:26.078Z,20.30
2018-09-03T05:44:54.983Z,20.30
2018-09-03T05:47:23.815Z,20.30
2018-09-03T05:49:52.687Z,20.30
2018-09-03T05:52:21.532Z,20.30
2018-09-03T05:54:50.391Z,20.30
2018-09-03T05:57:19.306Z,20.40
2018-09-03T05:59:48.066Z,20.40
2018-09-03T06:02:16.831Z,20.40
2018-09-03T06:04:45.820Z,20.40
2018-09-03T06:07:14.804Z,20.40
2018-09-03T06:09:43.682Z,20.40
2018-09-03T06:12:12.494Z,20.40
2018-09-03T06:14:41.341Z,20.40
2018-09-03T06:17:10.112Z,20.50
2018-09-03T06:19:39.028Z,20.50
2018-09-03T06:22:07.842Z,20.50
2018-09-03T06:24:36.562Z,20.50
2018-09-03T06:27:05.796Z,20.50
2018-09-03T06:29:34.534Z,20.50
2018-09-03T06:32:03.343Z,20.50
2018-09-03T06:34:32.199Z,20.50
2018-09-03T06:37:01.119Z,20.50
2018-09-03T06:39:29.875Z,20.50
2018-09-03T06:41:58.687Z,20.50
2018-09-03T06:44:27.556Z,20.50
2018-09-03T06:46:56.301Z,20.50
2018-09-03T06:49:25.108Z,20.60
2018-09-03T06:51:54.253Z,20.60
2018-09-03T06:54:23.482Z,20.60
2018-09-03T06:56:52.503Z,20.60
2018-09-03T06:59:21.346Z,20.60
2018-09-03T07:01:50.059Z,20.60
2018-09-03T07:04:19.152Z,20.70
2018-09-03T07:06:48.287Z,20.70
2018-09-03T07:09:17.612Z,20.70
2018-09-03T07:11:46.855Z,20.70
2018-09-03T07:14:16.360Z,20.70
2018-09-03T07:16:46.200Z,20.70
2018-09-03T07:19:15.063Z,20.70
2018-09-03T07:21:43.827Z,20.70
2018-09-03T07:26:41.510Z,20.70
2018-09-03T07:29:10.335Z,20.70
2018-09-03T07:31:39.274Z,20.70
2018-09-03T07:34:08.040Z,20.80
2018-09-03T07:36:36.854Z,20.80
2018-09-03T07:39:07.515Z,20.80
2018-09-03T07:41:37.192Z,20.80
2018-09-03T07:44:06.001Z,20.80
2018-09-03T07:46:35.189Z,20.80
2018-09-03T07:49:04.304Z,20.80
2018-09-03T07:51:33.574Z,20.80
2018-09-03T07:54:02.332Z,20.80
2018-09-03T07:56:31.545Z,20.80
2018-09-03T07:59:01.327Z,20.80
2018-09-03T08:01:30.481Z,20.80
2018-09-03T08:03:59.908Z,20.90
2018-09-03T08:06:28.746Z,20.90
2018-09-03T08:08:57.808Z,20.90
2018-09-03T08:11:26.871Z,20.90
2018-09-03T08:13:55.597Z,20.90
2018-09-03T08:16:24.362Z,20.90
2018-09-03T08:18:53.889Z,20.90
2018-09-03T08:21:22.891Z,20.90
2018-09-03T08:23:51.983Z,20.90
2018-09-03T08:26:20.681Z,20.90
2018-09-03T08:28:49.809Z,20.90
2018-09-03T08:31:18.695Z,20.90
2018-09-03T08:33:48.216Z,20.90
2018-09-03T08:36:16.934Z,20.90
2018-09-03T08:38:46.058Z,20.90
2018-09-03T08:41:14.791Z,20.90
2018-09-03T08:43:44.100Z,21.00
2018-09-03T08:46:12.868Z,21.00
2018-09-03T08:48:41.543Z,21.00
2018-09-03T08:51:11.066Z,21.00
2018-09-03T08:53:40.480Z,21.00
2018-09-03T08:56:10.230Z,21.00
2018-09-03T08:58:38.992Z,21.00
2018-09-03T09:01:07.715Z,21.00
2018-09-03T09:03:41.504Z,21.00
2018-09-03T09:06:10.764Z,21.00
2018-09-03T09:08:39.483Z,21.00
2018-09-03T09:11:09.066Z,21.00
2018-09-03T09:13:38.347Z,21.10
2018-09-03T09:16:07.096Z,21.10
2018-09-03T09:18:36.213Z,21.10
2018-09-03T09:21:05.425Z,21.10
2018-09-03T09:23:34.327Z,21.10
2018-09-03T09:26:03.180Z,21.10
2018-09-03T09:28:32.387Z,21.20
2018-09-03T09:31:01.430Z,21.20
2018-09-03T09:33:30.589Z,21.20
2018-09-03T09:35:59.762Z,21.20
2018-09-03T09:38:29.239Z,21.20
2018-09-03T09:40:57.954Z,21.20
2018-09-03T09:43:27.452Z,21.20
2018-09-03T09:45:56.536Z,21.20
2018-09-03T09:48:25.667Z,21.20
2018-09-03T09:50:54.366Z,21.30
2018-09-03T09:53:23.128Z,21.30
2018-09-03T09:55:51.831Z,21.30
2018-09-03T09:58:21.006Z,21.30
2018-09-03T10:00:55.184Z,21.30
2018-09-03T10:03:24.327Z,21.30
2018-09-03T10:05:53.047Z,21.40
2018-09-03T10:08:22.495Z,21.40
2018-09-03T10:10:51.598Z,21.40
2018-09-03T10:13:21.828Z,21.40
2018-09-03T10:15:50.638Z,21.40
2018-09-03T10:18:21.166Z,21.50
2018-09-03T10:20:50.257Z,21.50
2018-09-03T10:23:19.569Z,21.50
2018-09-03T10:25:48.761Z,21.50
2018-09-03T10:28:17.751Z,21.50
2018-09-03T10:30:46.514Z,21.50
2018-09-03T10:33:15.847Z,21.60
2018-09-03T10:38:14.160Z,21.60
2018-09-03T10:40:43.414Z,21.60
2018-09-03T10:43:12.511Z,21.60
2018-09-03T10:45:45.199Z,21.70
2018-09-03T10:48:16.235Z,21.70
2018-09-03T10:50:45.753Z,21.70
2018-09-03T10:53:14.779Z,21.70
2018-09-03T10:55:43.733Z,21.70
2018-09-03T10:58:12.999Z,21.80
2018-09-03T11:00:42.429Z,21.80
2018-09-03T11:03:11.656Z,21.80
2018-09-03T11:05:40.742Z,21.80
2018-09-03T11:08:10.213Z,21.80
2018-09-03T11:10:39.893Z,21.80
2018-09-03T11:13:09.132Z,21.80
2018-09-03T11:15:38.390Z,21.80
2018-09-03T11:18:07.963Z,21.90
2018-09-03T11:20:36.702Z,21.80
2018-09-03T11:23:05.512Z,21.90
2018-09-03T11:25:35.439Z,21.90
2018-09-03T11:28:04.200Z,21.90
2018-09-03T11:33:02.582Z,21.90
2018-09-03T11:35:32.028Z,22.00
2018-09-03T11:38:00.726Z,21.90
2018-09-03T11:40:29.751Z,22.00
2018-09-03T11:42:58.459Z,22.00
2018-09-03T11:45:27.203Z,22.00
2018-09-03T11:47:56.310Z,22.00
2018-09-03T11:50:25.424Z,22.00
2018-09-03T11:52:54.235Z,22.10
2018-09-03T11:55:23.380Z,22.00
2018-09-03T11:57:52.612Z,22.10
2018-09-03T12:00:24.110Z,22.10
2018-09-03T12:02:53.004Z,22.10
2018-09-03T12:05:22.247Z,22.10
2018-09-03T12:07:51.514Z,22.10
2018-09-03T12:10:20.715Z,22.10
2018-09-03T12:12:49.424Z,22.10
2018-09-03T12:15:29.749Z,22.20
2018-09-03T12:17:58.530Z,22.20
2018-09-03T12:20:27.777Z,22.20
2018-09-03T12:22:56.855Z,22.30
2018-09-03T12:25:26.059Z,22.20
2018-09-03T12:27:55.573Z,22.20
2018-09-03T12:30:24.978Z,22.30
2018-09-03T12:32:53.978Z,22.30
2018-09-03T12:35:23.505Z,22.40
2018-09-03T12:37:52.640Z,22.40
2018-09-03T12:40:21.345Z,22.30
2018-09-03T12:42:50.544Z,22.40
2018-09-03T12:45:23.745Z,22.40
2018-09-03T12:47:53.800Z,22.40
2018-09-03T12:50:22.913Z,22.40
2018-09-03T12:52:51.612Z,22.50
2018-09-03T12:55:20.294Z,22.50
2018-09-03T12:57:50.650Z,22.50
2018-09-03T13:00:21.459Z,22.50
2018-09-03T13:02:50.896Z,22.60
2018-09-03T13:05:21.378Z,22.60
2018-09-03T13:07:50.532Z,22.60
2018-09-03T13:10:19.706Z,22.60
2018-09-03T13:12:48.770Z,22.70
2018-09-03T13:15:17.846Z,22.70
2018-09-03T13:17:47.242Z,22.70
2018-09-03T13:20:16.344Z,22.70
2018-09-03T13:22:45.793Z,22.70
2018-09-03T13:25:15.077Z,22.80
2018-09-03T13:27:43.839Z,22.80
2018-09-03T13:30:12.889Z,22.90
2018-09-03T13:32:41.912Z,22.90
2018-09-03T13:35:11.132Z,22.90
2018-09-03T13:37:40.363Z,22.90
2018-09-03T13:40:09.914Z,22.90
2018-09-03T13:42:38.743Z,22.90
2018-09-03T13:47:36.896Z,23.00
2018-09-03T13:50:06.152Z,23.00
2018-09-03T13:52:35.139Z,23.00
2018-09-03T13:55:04.051Z,23.00
2018-09-03T13:57:33.700Z,23.00
2018-09-03T14:00:03.160Z,23.00
2018-09-03T14:02:32.743Z,23.00
2018-09-03T14:05:02.212Z,23.00
2018-09-03T14:07:31.251Z,23.00
2018-09-03T14:10:00.067Z,23.00
2018-09-03T14:12:29.020Z,23.10
2018-09-03T14:14:58.138Z,23.10
2018-09-03T14:17:27.927Z,23.10
2018-09-03T14:19:57.027Z,23.10
2018-09-03T14:22:26.239Z,23.10
2018-09-03T14:24:55.772Z,23.10
2018-09-03T14:27:24.891Z,23.10
2018-09-03T14:29:54.084Z,23.10
2018-09-03T14:34:51.841Z,23.10
2018-09-03T14:37:20.975Z,23.10
2018-09-03T14:39:49.703Z,23.10
2018-09-03T14:42:19.153Z,23.10
2018-09-03T14:44:47.859Z,23.10
2018-09-03T14:47:17.527Z,23.10
2018-09-03T14:49:46.757Z,23.10
2018-09-03T14:52:15.898Z,23.20
2018-09-03T14:54:45.153Z,23.10
2018-09-03T14:57:13.906Z,23.10
2018-09-03T14:59:42.700Z,23.20
2018-09-03T15:02:12.010Z,23.20
2018-09-03T15:04:40.968Z,23.20
2018-09-03T15:07:10.168Z,23.20
2018-09-03T15:09:39.054Z,23.20
2018-09-03T15:12:08.107Z,23.20
2018-09-03T15:14:36.975Z,23.20
2018-09-03T15:17:06.275Z,23.20
2018-09-03T15:19:35.162Z,23.20
2018-09-03T15:22:04.400Z,23.20
2018-09-03T15:24:33.660Z,23.20
2018-09-03T15:27:03.263Z,23.20
2018-09-03T15:29:32.444Z,23.20
2018-09-03T15:32:01.506Z,23.20
2018-09-03T15:34:30.343Z,23.20
2018-09-03T15:36:59.583Z,23.20
2018-09-03T15:39:28.367Z,23.20
2018-09-03T15:41:57.496Z,23.20
2018-09-03T15:44:26.222Z,23.20
2018-09-03T15:46:55.703Z,23.20
2018-09-03T15:49:24.864Z,23.30
2018-09-03T15:51:54.531Z,23.30
2018-09-03T15:54:23.940Z,23.30
2018-09-03T15:56:52.655Z,23.30
2018-09-03T15:59:21.422Z,23.30
2018-09-03T16:01:50.644Z,23.30
2018-09-03T16:04:19.852Z,23.30
2018-09-03T16:06:48.818Z,23.30
2018-09-03T16:09:17.888Z,23.30
2018-09-03T16:11:47.185Z,23.30
2018-09-03T16:14:16.256Z,23.30
2018-09-03T16:16:45.247Z,23.30
2018-09-03T16:19:14.447Z,23.30
2018-09-03T16:21:43.948Z,23.30
2018-09-03T16:24:13.446Z,23.30
2018-09-03T16:26:42.645Z,23.30
2018-09-03T16:29:11.874Z,23.30
2018-09-03T16:31:41.248Z,23.30
2018-09-03T16:34:10.421Z,23.30
2018-09-03T16:36:39.660Z,23.30
2018-09-03T16:39:08.826Z,23.30
2018-09-03T16:41:38.198Z,23.30
2018-09-03T16:44:07.673Z,23.30
2018-09-03T16:46:36.905Z,23.30
2018-09-03T16:49:05.790Z,23.30
2018-09-03T16:51:35.040Z,23.40
2018-09-03T16:54:04.240Z,23.30
2018-09-03T16:56:33.378Z,23.40
2018-09-03T16:59:02.130Z,23.40
2018-09-03T17:01:31.525Z,23.40
2018-09-03T17:04:01.381Z,23.40
2018-09-03T17:06:30.249Z,23.40
2018-09-03T17:08:59.515Z,23.40
2018-09-03T17:11:28.821Z,23.40
2018-09-03T17:13:57.676Z,23.40
2018-09-03T17:16:26.548Z,23.40
2018-09-03T17:18:56.024Z,23.40
2018-09-03T17:21:25.629Z,23.40
2018-09-03T17:23:54.497Z,23.40
2018-09-03T17:26:23.988Z,23.40
2018-09-03T17:28:53.317Z,23.40
2018-09-03T17:31:22.684Z,23.40
2018-09-03T17:33:52.117Z,23.30
2018-09-03T17:36:21.684Z,23.30
2018-09-03T17:38:50.850Z,23.30
2018-09-03T17:41:20.103Z,23.30
2018-09-03T17:43:48.871Z,23.30
2018-09-03T17:46:18.325Z,23.30
2018-09-03T17:48:47.534Z,23.30
2018-09-03T17:51:16.309Z,23.30
2018-09-03T17:53:45.129Z,23.30
2018-09-03T17:56:14.075Z,23.30
2018-09-03T17:58:42.945Z,23.30
2018-09-03T18:01:11.999Z,23.30
2018-09-03T18:03:41.396Z,23.30
2018-09-03T18:06:10.133Z,23.30
2018-09-03T18:08:39.392Z,23.20
2018-09-03T18:11:08.247Z,23.20
2018-09-03T18:13:37.668Z,23.20
2018-09-03T18:18:35.589Z,23.20
2018-09-03T18:21:04.652Z,23.20
2018-09-03T18:23:34.056Z,23.20
2018-09-03T18:26:02.809Z,23.20
2018-09-03T18:28:31.751Z,23.20
2018-09-03T18:31:01.571Z,23.20
2018-09-03T18:33:30.352Z,23.20
2018-09-03T18:35:59.556Z,23.10
2018-09-03T18:40:58.223Z,23.10
2018-09-03T18:43:27.026Z,23.10
2018-09-03T18:45:55.848Z,23.10
2018-09-03T18:48:24.790Z,23.10
2018-09-03T18:53:22.006Z,23.10
2018-09-03T18:55:51.002Z,23.10
2018-09-03T18:58:20.115Z,23.10
2018-09-03T19:00:49.249Z,23.10
2018-09-03T19:03:17.978Z,23.00
2018-09-03T19:05:47.185Z,23.00
2018-09-03T19:08:15.924Z,23.00
2018-09-03T19:10:44.642Z,23.00
2018-09-03T19:13:13.738Z,23.00
2018-09-03T19:15:43.190Z,23.00
2018-09-03T19:18:12.380Z,23.00
2018-09-03T19:20:41.382Z,23.00
2018-09-03T19:23:10.094Z,23.00
2018-09-03T19:25:38.943Z,23.00
2018-09-03T19:28:08.091Z,23.00
2018-09-03T19:30:37.328Z,23.00
2018-09-03T19:33:06.600Z,23.00
2018-09-03T19:35:35.791Z,22.90
2018-09-03T19:38:05.319Z,22.90
2018-09-03T19:40:34.846Z,22.90
2018-09-03T19:43:03.873Z,22.90
2018-09-03T19:45:33.040Z,22.90
2018-09-03T19:48:01.920Z,22.90
2018-09-03T19:50:30.775Z,22.90
2018-09-03T19:52:59.513Z,22.90
2018-09-03T19:55:28.206Z,22.90
2018-09-03T19:57:56.948Z,22.90
2018-09-03T20:00:26.099Z,22.80
2018-09-03T20:02:54.920Z,22.90
2018-09-03T20:05:24.046Z,22.90
2018-09-03T20:07:53.167Z,22.80
2018-09-03T20:10:22.041Z,22.90
2018-09-03T20:12:51.219Z,22.90
2018-09-03T20:15:25.756Z,22.90
2018-09-03T20:17:55.250Z,22.90
2018-09-03T20:20:24.440Z,22.90
2018-09-03T20:22:53.267Z,22.90
2018-09-03T20:25:22.690Z,22.90
2018-09-03T20:27:51.429Z,22.80
2018-09-03T20:30:20.730Z,22.90
2018-09-03T20:32:49.431Z,22.90
2018-09-03T20:35:18.151Z,22.90
2018-09-03T20:37:46.959Z,22.90
2018-09-03T20:40:15.678Z,22.80
2018-09-03T20:42:45.116Z,22.90
2018-09-03T20:45:14.415Z,22.90
2018-09-03T20:47:43.580Z,22.90
2018-09-03T20:50:12.635Z,22.90
2018-09-03T20:52:41.831Z,22.80
2018-09-03T20:55:10.694Z,22.90
